sensor_id;sensor_type;location;lat;lon;timestamp;pressure;altitude;pressure_sealevel;temperature;humidity
46682;BME280;34101;53.430;-2.224;2024-01-30T00:01:32;101225.92;;;13.46;82.10
46682;BME280;34101;53.430;-2.224;2024-01-30T00:03:59;101224.14;;;13.38;82.58
46682;BME280;34101;53.430;-2.224;2024-01-30T00:06:26;101222.62;;;13.46;82.54
46682;BME280;34101;53.430;-2.224;2024-01-30T00:08:53;101220.62;;;13.45;82.20
46682;BME280;34101;53.430;-2.224;2024-01-30T00:11:21;101224.73;;;13.34;83.02
46682;BME280;34101;53.430;-2.224;2024-01-30T00:13:48;101217.16;;;13.37;82.49
46682;BME280;34101;53.430;-2.224;2024-01-30T00:16:24;101220.71;;;13.44;82.75
46682;BME280;34101;53.430;-2.224;2024-01-30T00:18:52;101222.87;;;13.36;83.25
46682;BME280;34101;53.430;-2.224;2024-01-30T00:21:19;101223.32;;;13.45;82.86
46682;BME280;34101;53.430;-2.224;2024-01-30T00:23:47;101223.41;;;13.52;82.29
46682;BME280;34101;53.430;-2.224;2024-01-30T00:26:15;101218.09;;;13.43;82.79
46682;BME280;34101;53.430;-2.224;2024-01-30T00:28:43;101242.15;;;13.50;82.81
46682;BME280;34101;53.430;-2.224;2024-01-30T00:31:11;101245.39;;;13.23;82.76
46682;BME280;34101;53.430;-2.224;2024-01-30T00:33:38;101259.56;;;12.79;82.53
46682;BME280;34101;53.430;-2.224;2024-01-30T00:36:05;101254.09;;;12.40;82.46
46682;BME280;34101;53.430;-2.224;2024-01-30T00:38:33;101260.92;;;11.76;84.35
46682;BME280;34101;53.430;-2.224;2024-01-30T00:41:00;101266.75;;;11.27;85.96
46682;BME280;34101;53.430;-2.224;2024-01-30T00:43:28;101269.41;;;11.52;85.91
46682;BME280;34101;53.430;-2.224;2024-01-30T00:45:54;101277.98;;;10.94;86.62
46682;BME280;34101;53.430;-2.224;2024-01-30T00:48:21;101288.11;;;10.40;88.85
46682;BME280;34101;53.430;-2.224;2024-01-30T00:50:48;101292.64;;;10.32;88.46
46682;BME280;34101;53.430;-2.224;2024-01-30T00:53:16;101295.31;;;10.76;87.16
46682;BME280;34101;53.430;-2.224;2024-01-30T00:55:43;101295.00;;;10.84;86.27
46682;BME280;34101;53.430;-2.224;2024-01-30T00:58:10;101300.26;;;10.84;86.05
46682;BME280;34101;53.430;-2.224;2024-01-30T01:00:39;101305.54;;;10.87;85.62
46682;BME280;34101;53.430;-2.224;2024-01-30T01:03:06;101306.79;;;10.85;85.49
46682;BME280;34101;53.430;-2.224;2024-01-30T01:05:34;101308.93;;;10.77;84.93
46682;BME280;34101;53.430;-2.224;2024-01-30T01:08:01;101313.60;;;10.55;86.49
46682;BME280;34101;53.430;-2.224;2024-01-30T01:10:29;101316.02;;;10.65;85.64
46682;BME280;34101;53.430;-2.224;2024-01-30T01:12:56;101318.50;;;10.59;85.38
46682;BME280;34101;53.430;-2.224;2024-01-30T01:15:23;101320.86;;;10.49;85.29
46682;BME280;34101;53.430;-2.224;2024-01-30T01:17:50;101322.64;;;10.70;84.72
46682;BME280;34101;53.430;-2.224;2024-01-30T01:20:18;101324.96;;;10.81;84.66
46682;BME280;34101;53.430;-2.224;2024-01-30T01:22:45;101324.06;;;10.66;83.55
46682;BME280;34101;53.430;-2.224;2024-01-30T01:25:13;101322.42;;;10.58;84.30
46682;BME280;34101;53.430;-2.224;2024-01-30T01:27:40;101324.45;;;10.70;85.15
46682;BME280;34101;53.430;-2.224;2024-01-30T01:30:10;101321.76;;;10.10;85.33
46682;BME280;34101;53.430;-2.224;2024-01-30T01:32:38;101327.44;;;10.51;84.93
46682;BME280;34101;53.430;-2.224;2024-01-30T01:35:05;101327.70;;;10.66;84.36
46682;BME280;34101;53.430;-2.224;2024-01-30T01:37:32;101333.01;;;10.66;83.28
46682;BME280;34101;53.430;-2.224;2024-01-30T01:40:00;101333.64;;;10.47;84.28
46682;BME280;34101;53.430;-2.224;2024-01-30T01:42:27;101334.55;;;10.65;83.93
46682;BME280;34101;53.430;-2.224;2024-01-30T01:44:54;101332.64;;;10.34;85.06
46682;BME280;34101;53.430;-2.224;2024-01-30T01:47:21;101339.99;;;10.48;84.36
46682;BME280;34101;53.430;-2.224;2024-01-30T01:49:49;101345.78;;;10.31;84.05
46682;BME280;34101;53.430;-2.224;2024-01-30T01:52:17;101343.44;;;10.10;85.54
46682;BME280;34101;53.430;-2.224;2024-01-30T01:54:45;101347.20;;;10.34;84.16
46682;BME280;34101;53.430;-2.224;2024-01-30T01:57:12;101347.57;;;10.43;83.85
46682;BME280;34101;53.430;-2.224;2024-01-30T01:59:40;101348.46;;;10.40;83.56
46682;BME280;34101;53.430;-2.224;2024-01-30T02:02:11;101355.21;;;9.96;84.96
46682;BME280;34101;53.430;-2.224;2024-01-30T02:04:40;101357.82;;;10.43;84.54
46682;BME280;34101;53.430;-2.224;2024-01-30T02:07:07;101360.56;;;10.35;83.11
46682;BME280;34101;53.430;-2.224;2024-01-30T02:09:35;101365.12;;;9.88;84.82
46682;BME280;34101;53.430;-2.224;2024-01-30T02:12:02;101369.27;;;10.20;83.87
46682;BME280;34101;53.430;-2.224;2024-01-30T02:14:29;101370.57;;;10.05;85.24
46682;BME280;34101;53.430;-2.224;2024-01-30T02:16:57;101376.86;;;10.23;83.86
46682;BME280;34101;53.430;-2.224;2024-01-30T02:19:24;101378.26;;;10.29;83.61
46682;BME280;34101;53.430;-2.224;2024-01-30T02:21:52;101374.28;;;10.23;84.01
46682;BME280;34101;53.430;-2.224;2024-01-30T02:24:20;101374.09;;;9.66;85.13
46682;BME280;34101;53.430;-2.224;2024-01-30T02:26:47;101366.22;;;10.09;83.89
46682;BME280;34101;53.430;-2.224;2024-01-30T02:29:15;101369.84;;;10.20;83.78
46682;BME280;34101;53.430;-2.224;2024-01-30T02:31:42;101374.06;;;10.25;83.43
46682;BME280;34101;53.430;-2.224;2024-01-30T02:34:10;101374.20;;;9.97;82.87
46682;BME280;34101;53.430;-2.224;2024-01-30T02:36:38;101381.38;;;9.88;83.93
46682;BME280;34101;53.430;-2.224;2024-01-30T02:39:05;101386.01;;;10.04;84.43
46682;BME280;34101;53.430;-2.224;2024-01-30T02:41:32;101385.64;;;10.16;83.23
46682;BME280;34101;53.430;-2.224;2024-01-30T02:44:00;101387.47;;;10.02;83.59
46682;BME280;34101;53.430;-2.224;2024-01-30T02:46:27;101394.14;;;10.05;83.67
46682;BME280;34101;53.430;-2.224;2024-01-30T02:48:54;101393.98;;;10.19;82.92
46682;BME280;34101;53.430;-2.224;2024-01-30T02:51:22;101401.35;;;10.22;82.60
46682;BME280;34101;53.430;-2.224;2024-01-30T02:53:49;101399.94;;;10.05;83.11
46682;BME280;34101;53.430;-2.224;2024-01-30T02:56:17;101400.91;;;10.05;83.02
46682;BME280;34101;53.430;-2.224;2024-01-30T02:58:44;101401.73;;;10.16;82.41
46682;BME280;34101;53.430;-2.224;2024-01-30T03:01:12;101400.60;;;10.10;82.09
46682;BME280;34101;53.430;-2.224;2024-01-30T03:03:40;101405.08;;;10.08;82.31
46682;BME280;34101;53.430;-2.224;2024-01-30T03:06:07;101406.94;;;10.29;82.81
46682;BME280;34101;53.430;-2.224;2024-01-30T03:08:35;101410.14;;;10.28;82.17
46682;BME280;34101;53.430;-2.224;2024-01-30T03:11:02;101414.58;;;10.29;82.06
46682;BME280;34101;53.430;-2.224;2024-01-30T03:13:30;101417.23;;;10.26;82.07
46682;BME280;34101;53.430;-2.224;2024-01-30T03:15:57;101420.58;;;10.04;81.78
46682;BME280;34101;53.430;-2.224;2024-01-30T03:18:25;101423.09;;;10.13;82.43
46682;BME280;34101;53.430;-2.224;2024-01-30T03:20:52;101427.69;;;9.89;82.90
46682;BME280;34101;53.430;-2.224;2024-01-30T03:23:19;101430.23;;;10.06;82.10
46682;BME280;34101;53.430;-2.224;2024-01-30T03:25:47;101433.30;;;9.79;82.40
46682;BME280;34101;53.430;-2.224;2024-01-30T03:28:14;101437.60;;;9.76;82.91
46682;BME280;34101;53.430;-2.224;2024-01-30T03:30:42;101434.64;;;9.51;82.96
46682;BME280;34101;53.430;-2.224;2024-01-30T03:33:09;101433.47;;;9.89;83.13
46682;BME280;34101;53.430;-2.224;2024-01-30T03:35:37;101440.00;;;9.94;82.74
46682;BME280;34101;53.430;-2.224;2024-01-30T03:38:04;101439.28;;;9.99;82.76
46682;BME280;34101;53.430;-2.224;2024-01-30T03:40:32;101440.33;;;9.97;81.94
46682;BME280;34101;53.430;-2.224;2024-01-30T03:42:59;101441.80;;;9.85;82.53
46682;BME280;34101;53.430;-2.224;2024-01-30T03:45:26;101448.87;;;9.98;82.48
46682;BME280;34101;53.430;-2.224;2024-01-30T03:47:54;101453.19;;;9.68;83.23
46682;BME280;34101;53.430;-2.224;2024-01-30T03:50:21;101456.70;;;9.87;83.25
46682;BME280;34101;53.430;-2.224;2024-01-30T03:52:49;101459.64;;;9.97;82.82
46682;BME280;34101;53.430;-2.224;2024-01-30T03:55:16;101461.57;;;10.02;82.89
46682;BME280;34101;53.430;-2.224;2024-01-30T03:57:43;101463.03;;;10.01;82.62
46682;BME280;34101;53.430;-2.224;2024-01-30T04:00:12;101464.43;;;9.97;82.45
46682;BME280;34101;53.430;-2.224;2024-01-30T04:02:40;101463.39;;;9.82;82.92
46682;BME280;34101;53.430;-2.224;2024-01-30T04:05:07;101464.73;;;9.88;83.35
46682;BME280;34101;53.430;-2.224;2024-01-30T04:07:34;101465.84;;;9.87;83.37
46682;BME280;34101;53.430;-2.224;2024-01-30T04:10:02;101467.94;;;9.81;83.21
46682;BME280;34101;53.430;-2.224;2024-01-30T04:12:29;101468.31;;;9.90;82.69
46682;BME280;34101;53.430;-2.224;2024-01-30T04:14:56;101471.44;;;10.04;82.27
46682;BME280;34101;53.430;-2.224;2024-01-30T04:17:24;101477.17;;;9.99;82.14
46682;BME280;34101;53.430;-2.224;2024-01-30T04:19:51;101477.54;;;9.83;82.19
46682;BME280;34101;53.430;-2.224;2024-01-30T04:22:19;101479.96;;;10.02;82.19
46682;BME280;34101;53.430;-2.224;2024-01-30T04:24:46;101479.23;;;10.06;81.85
46682;BME280;34101;53.430;-2.224;2024-01-30T04:27:14;101483.21;;;9.81;82.52
46682;BME280;34101;53.430;-2.224;2024-01-30T04:29:41;101488.87;;;9.36;82.95
46682;BME280;34101;53.430;-2.224;2024-01-30T04:32:09;101495.06;;;8.85;84.37
46682;BME280;34101;53.430;-2.224;2024-01-30T04:34:37;101499.78;;;9.22;84.04
46682;BME280;34101;53.430;-2.224;2024-01-30T04:37:04;101503.48;;;9.46;83.03
46682;BME280;34101;53.430;-2.224;2024-01-30T04:39:33;101509.43;;;9.54;82.28
46682;BME280;34101;53.430;-2.224;2024-01-30T04:42:01;101512.10;;;9.58;82.61
46682;BME280;34101;53.430;-2.224;2024-01-30T04:44:28;101511.39;;;9.71;81.98
46682;BME280;34101;53.430;-2.224;2024-01-30T04:46:55;101514.41;;;9.49;80.61
46682;BME280;34101;53.430;-2.224;2024-01-30T04:49:23;101520.39;;;9.69;81.44
46682;BME280;34101;53.430;-2.224;2024-01-30T04:51:50;101527.03;;;9.24;81.43
46682;BME280;34101;53.430;-2.224;2024-01-30T04:54:18;101535.29;;;9.45;81.65
46682;BME280;34101;53.430;-2.224;2024-01-30T04:56:45;101540.04;;;9.39;81.29
46682;BME280;34101;53.430;-2.224;2024-01-30T04:59:13;101543.89;;;9.53;81.66
46682;BME280;34101;53.430;-2.224;2024-01-30T05:01:41;101548.52;;;9.60;80.91
46682;BME280;34101;53.430;-2.224;2024-01-30T05:04:08;101550.37;;;9.17;82.57
46682;BME280;34101;53.430;-2.224;2024-01-30T05:06:36;101555.08;;;9.14;82.48
46682;BME280;34101;53.430;-2.224;2024-01-30T05:09:03;101559.42;;;9.38;82.24
46682;BME280;34101;53.430;-2.224;2024-01-30T05:11:31;101565.89;;;8.70;83.01
46682;BME280;34101;53.430;-2.224;2024-01-30T05:13:59;101571.32;;;9.02;83.11
46682;BME280;34101;53.430;-2.224;2024-01-30T05:16:26;101575.78;;;9.12;83.26
46682;BME280;34101;53.430;-2.224;2024-01-30T05:18:54;101589.48;;;9.33;82.37
46682;BME280;34101;53.430;-2.224;2024-01-30T05:21:21;101597.47;;;9.32;82.20
46682;BME280;34101;53.430;-2.224;2024-01-30T05:23:49;101597.11;;;9.30;81.84
46682;BME280;34101;53.430;-2.224;2024-01-30T05:26:16;101609.16;;;9.17;81.88
46682;BME280;34101;53.430;-2.224;2024-01-30T05:28:44;101614.53;;;9.00;82.48
46682;BME280;34101;53.430;-2.224;2024-01-30T05:31:11;101623.88;;;9.19;82.40
46682;BME280;34101;53.430;-2.224;2024-01-30T05:33:39;101620.96;;;9.14;81.73
46682;BME280;34101;53.430;-2.224;2024-01-30T05:36:07;101625.90;;;8.97;82.05
46682;BME280;34101;53.430;-2.224;2024-01-30T05:38:35;101626.64;;;8.73;83.07
46682;BME280;34101;53.430;-2.224;2024-01-30T05:41:03;101629.55;;;8.79;83.32
46682;BME280;34101;53.430;-2.224;2024-01-30T05:43:30;101629.75;;;8.72;82.97
46682;BME280;34101;53.430;-2.224;2024-01-30T05:45:57;101635.22;;;8.96;83.11
46682;BME280;34101;53.430;-2.224;2024-01-30T05:48:25;101638.22;;;8.96;82.05
46682;BME280;34101;53.430;-2.224;2024-01-30T05:50:52;101638.40;;;9.08;82.60
46682;BME280;34101;53.430;-2.224;2024-01-30T05:53:20;101645.59;;;9.12;81.50
46682;BME280;34101;53.430;-2.224;2024-01-30T05:55:47;101654.92;;;8.84;83.24
46682;BME280;34101;53.430;-2.224;2024-01-30T05:58:15;101661.61;;;8.83;82.84
46682;BME280;34101;53.430;-2.224;2024-01-30T06:00:43;101667.56;;;8.84;82.76
46682;BME280;34101;53.430;-2.224;2024-01-30T06:03:10;101670.61;;;8.89;82.86
46682;BME280;34101;53.430;-2.224;2024-01-30T06:05:38;101678.45;;;8.84;83.12
46682;BME280;34101;53.430;-2.224;2024-01-30T06:08:06;101684.79;;;8.79;83.77
46682;BME280;34101;53.430;-2.224;2024-01-30T06:10:34;101691.75;;;8.81;83.21
46682;BME280;34101;53.430;-2.224;2024-01-30T06:13:02;101698.63;;;8.84;83.00
46682;BME280;34101;53.430;-2.224;2024-01-30T06:15:29;101703.71;;;8.87;83.02
46682;BME280;34101;53.430;-2.224;2024-01-30T06:17:57;101714.61;;;8.58;83.96
46682;BME280;34101;53.430;-2.224;2024-01-30T06:20:24;101721.45;;;8.83;84.09
46682;BME280;34101;53.430;-2.224;2024-01-30T06:22:52;101729.50;;;8.84;83.42
46682;BME280;34101;53.430;-2.224;2024-01-30T06:25:19;101735.96;;;8.88;83.54
46682;BME280;34101;53.430;-2.224;2024-01-30T06:27:47;101740.94;;;8.90;83.30
46682;BME280;34101;53.430;-2.224;2024-01-30T06:30:15;101745.89;;;8.94;83.10
46682;BME280;34101;53.430;-2.224;2024-01-30T06:32:42;101753.32;;;8.91;83.20
46682;BME280;34101;53.430;-2.224;2024-01-30T06:35:09;101758.67;;;8.95;82.85
46682;BME280;34101;53.430;-2.224;2024-01-30T06:37:37;101766.10;;;8.81;82.83
46682;BME280;34101;53.430;-2.224;2024-01-30T06:40:05;101774.83;;;8.92;83.27
46682;BME280;34101;53.430;-2.224;2024-01-30T06:42:32;101778.06;;;8.55;83.93
46682;BME280;34101;53.430;-2.224;2024-01-30T06:45:00;101783.84;;;8.62;84.37
46682;BME280;34101;53.430;-2.224;2024-01-30T06:47:27;101785.53;;;8.75;83.89
46682;BME280;34101;53.430;-2.224;2024-01-30T06:49:54;101794.55;;;8.56;84.01
46682;BME280;34101;53.430;-2.224;2024-01-30T06:52:22;101801.60;;;8.66;84.61
46682;BME280;34101;53.430;-2.224;2024-01-30T06:54:49;101810.34;;;8.65;84.64
46682;BME280;34101;53.430;-2.224;2024-01-30T06:57:17;101816.43;;;8.82;83.95
46682;BME280;34101;53.430;-2.224;2024-01-30T06:59:44;101823.94;;;8.90;84.07
46682;BME280;34101;53.430;-2.224;2024-01-30T07:02:12;101829.51;;;8.97;84.07
46682;BME280;34101;53.430;-2.224;2024-01-30T07:04:40;101838.16;;;9.08;83.71
46682;BME280;34101;53.430;-2.224;2024-01-30T07:07:06;101843.07;;;9.02;83.48
46682;BME280;34101;53.430;-2.224;2024-01-30T07:09:34;101849.06;;;8.98;82.69
46682;BME280;34101;53.430;-2.224;2024-01-30T07:12:02;101855.48;;;8.80;82.70
46682;BME280;34101;53.430;-2.224;2024-01-30T07:14:29;101864.04;;;8.91;83.41
46682;BME280;34101;53.430;-2.224;2024-01-30T07:16:56;101869.78;;;8.89;82.54
46682;BME280;34101;53.430;-2.224;2024-01-30T07:19:24;101872.08;;;8.87;83.11
46682;BME280;34101;53.430;-2.224;2024-01-30T07:21:51;101872.87;;;8.87;82.28
46682;BME280;34101;53.430;-2.224;2024-01-30T07:24:19;101877.49;;;8.98;83.08
46682;BME280;34101;53.430;-2.224;2024-01-30T07:26:46;101880.68;;;8.95;83.00
46682;BME280;34101;53.430;-2.224;2024-01-30T07:29:14;101885.99;;;8.96;82.71
46682;BME280;34101;53.430;-2.224;2024-01-30T07:31:42;101891.53;;;8.62;81.69
46682;BME280;34101;53.430;-2.224;2024-01-30T07:34:09;101897.27;;;8.85;83.05
46682;BME280;34101;53.430;-2.224;2024-01-30T07:36:37;101905.80;;;8.91;82.09
46682;BME280;34101;53.430;-2.224;2024-01-30T07:39:04;101910.72;;;8.91;82.04
46682;BME280;34101;53.430;-2.224;2024-01-30T07:41:32;101917.29;;;8.90;81.91
46682;BME280;34101;53.430;-2.224;2024-01-30T07:43:59;101922.11;;;8.92;81.63
46682;BME280;34101;53.430;-2.224;2024-01-30T07:46:26;101930.59;;;8.80;82.47
46682;BME280;34101;53.430;-2.224;2024-01-30T07:48:54;101939.77;;;8.85;81.93
46682;BME280;34101;53.430;-2.224;2024-01-30T07:51:21;101944.64;;;8.87;81.83
46682;BME280;34101;53.430;-2.224;2024-01-30T07:53:49;101949.08;;;9.00;82.06
46682;BME280;34101;53.430;-2.224;2024-01-30T07:56:16;101952.66;;;8.80;81.57
46682;BME280;34101;53.430;-2.224;2024-01-30T07:58:44;101956.81;;;8.65;81.87
46682;BME280;34101;53.430;-2.224;2024-01-30T08:01:11;101961.99;;;8.76;82.16
46682;BME280;34101;53.430;-2.224;2024-01-30T08:03:39;101971.49;;;8.89;80.89
46682;BME280;34101;53.430;-2.224;2024-01-30T08:06:06;101976.27;;;8.72;81.47
46682;BME280;34101;53.430;-2.224;2024-01-30T08:08:33;101977.11;;;8.65;81.13
46682;BME280;34101;53.430;-2.224;2024-01-30T08:11:01;101983.47;;;8.68;81.68
46682;BME280;34101;53.430;-2.224;2024-01-30T08:13:28;101988.31;;;8.79;81.36
46682;BME280;34101;53.430;-2.224;2024-01-30T08:15:56;101996.93;;;8.84;81.80
46682;BME280;34101;53.430;-2.224;2024-01-30T08:18:23;102004.28;;;8.62;80.98
46682;BME280;34101;53.430;-2.224;2024-01-30T08:20:51;102010.91;;;8.62;81.51
46682;BME280;34101;53.430;-2.224;2024-01-30T08:23:18;102020.74;;;8.57;80.82
46682;BME280;34101;53.430;-2.224;2024-01-30T08:25:46;102031.81;;;8.53;81.50
46682;BME280;34101;53.430;-2.224;2024-01-30T08:28:13;102041.11;;;8.31;81.97
46682;BME280;34101;53.430;-2.224;2024-01-30T08:30:41;102046.60;;;8.55;81.95
46682;BME280;34101;53.430;-2.224;2024-01-30T08:33:08;102052.82;;;8.57;81.12
46682;BME280;34101;53.430;-2.224;2024-01-30T08:35:35;102062.82;;;8.74;80.93
46682;BME280;34101;53.430;-2.224;2024-01-30T08:38:03;102067.12;;;8.42;81.19
46682;BME280;34101;53.430;-2.224;2024-01-30T08:40:30;102073.11;;;8.25;82.21
46682;BME280;34101;53.430;-2.224;2024-01-30T08:42:58;102080.13;;;8.62;81.16
46682;BME280;34101;53.430;-2.224;2024-01-30T08:45:25;102088.93;;;8.16;81.72
46682;BME280;34101;53.430;-2.224;2024-01-30T08:47:53;102096.06;;;8.17;82.41
46682;BME280;34101;53.430;-2.224;2024-01-30T08:50:20;102095.50;;;8.41;81.81
46682;BME280;34101;53.430;-2.224;2024-01-30T08:52:48;102101.72;;;8.41;80.64
46682;BME280;34101;53.430;-2.224;2024-01-30T08:55:15;102105.78;;;8.37;80.55
46682;BME280;34101;53.430;-2.224;2024-01-30T08:57:43;102117.07;;;8.47;80.56
46682;BME280;34101;53.430;-2.224;2024-01-30T09:00:11;102113.31;;;8.64;79.60
46682;BME280;34101;53.430;-2.224;2024-01-30T09:02:39;102121.16;;;8.73;80.03
46682;BME280;34101;53.430;-2.224;2024-01-30T09:05:06;102127.89;;;8.81;79.19
46682;BME280;34101;53.430;-2.224;2024-01-30T09:07:33;102138.03;;;8.92;78.80
46682;BME280;34101;53.430;-2.224;2024-01-30T09:10:01;102147.93;;;8.93;78.32
46682;BME280;34101;53.430;-2.224;2024-01-30T09:12:28;102150.84;;;9.03;77.87
46682;BME280;34101;53.430;-2.224;2024-01-30T09:14:56;102155.16;;;9.04;77.25
46682;BME280;34101;53.430;-2.224;2024-01-30T09:17:23;102163.24;;;9.00;77.48
46682;BME280;34101;53.430;-2.224;2024-01-30T09:19:50;102171.62;;;9.16;77.60
46682;BME280;34101;53.430;-2.224;2024-01-30T09:22:18;102178.86;;;9.21;76.83
46682;BME280;34101;53.430;-2.224;2024-01-30T09:24:45;102182.51;;;8.86;77.48
46682;BME280;34101;53.430;-2.224;2024-01-30T09:27:13;102186.83;;;9.08;77.93
46682;BME280;34101;53.430;-2.224;2024-01-30T09:29:41;102198.77;;;8.90;77.80
46682;BME280;34101;53.430;-2.224;2024-01-30T09:32:08;102206.48;;;8.96;77.53
46682;BME280;34101;53.430;-2.224;2024-01-30T09:34:35;102210.70;;;9.12;77.32
46682;BME280;34101;53.430;-2.224;2024-01-30T09:37:03;102217.91;;;9.17;77.04
46682;BME280;34101;53.430;-2.224;2024-01-30T09:39:30;102217.74;;;9.24;77.38
46682;BME280;34101;53.430;-2.224;2024-01-30T09:42:02;102220.54;;;9.27;75.87
46682;BME280;34101;53.430;-2.224;2024-01-30T09:44:32;102225.08;;;9.28;76.81
46682;BME280;34101;53.430;-2.224;2024-01-30T09:47:01;102226.42;;;9.31;76.88
46682;BME280;34101;53.430;-2.224;2024-01-30T09:49:31;102234.69;;;9.30;75.64
46682;BME280;34101;53.430;-2.224;2024-01-30T09:51:59;102238.20;;;9.28;75.62
46682;BME280;34101;53.430;-2.224;2024-01-30T09:54:29;102242.17;;;9.33;74.97
46682;BME280;34101;53.430;-2.224;2024-01-30T09:56:57;102252.46;;;9.77;75.99
46682;BME280;34101;53.430;-2.224;2024-01-30T09:59:25;102254.14;;;10.77;72.44
46682;BME280;34101;53.430;-2.224;2024-01-30T10:01:52;102262.20;;;11.28;69.54
46682;BME280;34101;53.430;-2.224;2024-01-30T10:04:19;102270.16;;;11.38;68.25
46682;BME280;34101;53.430;-2.224;2024-01-30T10:06:47;102279.52;;;12.01;65.60
46682;BME280;34101;53.430;-2.224;2024-01-30T10:09:15;102284.28;;;11.72;67.54
46682;BME280;34101;53.430;-2.224;2024-01-30T10:11:42;102287.60;;;11.33;68.21
46682;BME280;34101;53.430;-2.224;2024-01-30T10:14:10;102294.49;;;11.57;68.23
46682;BME280;34101;53.430;-2.224;2024-01-30T10:16:37;102294.60;;;11.91;65.82
46682;BME280;34101;53.430;-2.224;2024-01-30T10:19:05;102300.21;;;12.01;65.02
46682;BME280;34101;53.430;-2.224;2024-01-30T10:21:32;102301.48;;;11.81;63.48
46682;BME280;34101;53.430;-2.224;2024-01-30T10:24:00;102308.68;;;11.04;66.33
46682;BME280;34101;53.430;-2.224;2024-01-30T10:26:27;102313.54;;;11.09;65.28
46682;BME280;34101;53.430;-2.224;2024-01-30T10:28:54;102318.92;;;10.91;65.24
46682;BME280;34101;53.430;-2.224;2024-01-30T10:31:22;102323.72;;;10.93;65.19
46682;BME280;34101;53.430;-2.224;2024-01-30T10:33:49;102324.04;;;10.79;65.60
46682;BME280;34101;53.430;-2.224;2024-01-30T10:36:17;102331.52;;;10.70;65.75
46682;BME280;34101;53.430;-2.224;2024-01-30T10:38:45;102343.78;;;10.57;65.55
46682;BME280;34101;53.430;-2.224;2024-01-30T10:41:15;102351.05;;;10.60;65.45
46682;BME280;34101;53.430;-2.224;2024-01-30T10:43:53;102354.45;;;10.56;64.65
46682;BME280;34101;53.430;-2.224;2024-01-30T10:46:27;102353.87;;;10.61;65.33
46682;BME280;34101;53.430;-2.224;2024-01-30T10:48:58;102354.95;;;10.57;65.07
46682;BME280;34101;53.430;-2.224;2024-01-30T10:51:26;102361.12;;;10.38;64.97
46682;BME280;34101;53.430;-2.224;2024-01-30T10:53:55;102367.27;;;10.09;65.77
46682;BME280;34101;53.430;-2.224;2024-01-30T10:56:23;102379.68;;;10.24;66.87
46682;BME280;34101;53.430;-2.224;2024-01-30T10:58:51;102381.60;;;10.46;65.88
46682;BME280;34101;53.430;-2.224;2024-01-30T11:01:20;102383.84;;;10.50;65.13
46682;BME280;34101;53.430;-2.224;2024-01-30T11:03:47;102387.39;;;10.58;65.44
46682;BME280;34101;53.430;-2.224;2024-01-30T11:06:15;102389.88;;;10.74;64.69
46682;BME280;34101;53.430;-2.224;2024-01-30T11:08:43;102392.49;;;10.74;64.90
46682;BME280;34101;53.430;-2.224;2024-01-30T11:11:10;102395.19;;;10.91;64.15
46682;BME280;34101;53.430;-2.224;2024-01-30T11:13:39;102401.46;;;10.96;64.32
46682;BME280;34101;53.430;-2.224;2024-01-30T11:16:07;102406.72;;;11.15;64.30
46682;BME280;34101;53.430;-2.224;2024-01-30T11:18:38;102412.10;;;11.28;63.60
46682;BME280;34101;53.430;-2.224;2024-01-30T11:21:06;102414.05;;;11.16;63.77
46682;BME280;34101;53.430;-2.224;2024-01-30T11:23:34;102413.72;;;11.38;63.38
46682;BME280;34101;53.430;-2.224;2024-01-30T11:26:01;102417.52;;;11.57;63.59
46682;BME280;34101;53.430;-2.224;2024-01-30T11:28:33;102417.95;;;11.56;62.23
46682;BME280;34101;53.430;-2.224;2024-01-30T11:31:04;102420.12;;;11.50;62.96
46682;BME280;34101;53.430;-2.224;2024-01-30T11:33:31;102422.01;;;12.30;60.49
46682;BME280;34101;53.430;-2.224;2024-01-30T11:35:59;102428.99;;;13.16;58.92
46682;BME280;34101;53.430;-2.224;2024-01-30T11:38:28;102429.33;;;13.82;56.60
46682;BME280;34101;53.430;-2.224;2024-01-30T11:40:56;102430.73;;;14.64;54.99
46682;BME280;34101;53.430;-2.224;2024-01-30T11:43:24;102434.61;;;14.88;53.06
46682;BME280;34101;53.430;-2.224;2024-01-30T11:45:51;102443.60;;;13.36;55.14
46682;BME280;34101;53.430;-2.224;2024-01-30T11:48:18;102444.82;;;13.66;56.25
46682;BME280;34101;53.430;-2.224;2024-01-30T11:50:46;102448.88;;;13.47;55.02
46682;BME280;34101;53.430;-2.224;2024-01-30T11:53:14;102445.97;;;13.67;55.85
46682;BME280;34101;53.430;-2.224;2024-01-30T11:55:42;102454.02;;;13.88;54.80
46682;BME280;34101;53.430;-2.224;2024-01-30T11:58:09;102455.31;;;13.70;54.56
46682;BME280;34101;53.430;-2.224;2024-01-30T12:00:36;102459.43;;;13.48;55.42
46682;BME280;34101;53.430;-2.224;2024-01-30T12:03:04;102460.49;;;13.34;55.92
46682;BME280;34101;53.430;-2.224;2024-01-30T12:05:31;102459.99;;;12.66;56.87
46682;BME280;34101;53.430;-2.224;2024-01-30T12:07:58;102460.17;;;12.53;57.48
46682;BME280;34101;53.430;-2.224;2024-01-30T12:10:26;102459.72;;;11.61;58.65
46682;BME280;34101;53.430;-2.224;2024-01-30T12:12:54;102458.81;;;11.50;58.98
46682;BME280;34101;53.430;-2.224;2024-01-30T12:15:22;102461.31;;;11.41;58.99
46682;BME280;34101;53.430;-2.224;2024-01-30T12:17:50;102465.88;;;11.31;59.58
46682;BME280;34101;53.430;-2.224;2024-01-30T12:20:19;102468.30;;;11.08;60.45
46682;BME280;34101;53.430;-2.224;2024-01-30T12:22:48;102469.46;;;11.48;60.20
46682;BME280;34101;53.430;-2.224;2024-01-30T12:25:16;102468.40;;;11.37;59.57
46682;BME280;34101;53.430;-2.224;2024-01-30T12:27:46;102472.41;;;10.76;60.76
46682;BME280;34101;53.430;-2.224;2024-01-30T12:30:14;102476.63;;;10.96;61.51
46682;BME280;34101;53.430;-2.224;2024-01-30T12:32:43;102481.12;;;11.18;60.16
46682;BME280;34101;53.430;-2.224;2024-01-30T12:35:11;102485.74;;;11.18;59.67
46682;BME280;34101;53.430;-2.224;2024-01-30T12:37:40;102486.31;;;10.86;60.66
46682;BME280;34101;53.430;-2.224;2024-01-30T12:40:08;102487.59;;;11.08;61.22
46682;BME280;34101;53.430;-2.224;2024-01-30T12:42:36;102476.85;;;11.35;60.72
46682;BME280;34101;53.430;-2.224;2024-01-30T12:45:03;102475.81;;;11.26;60.74
46682;BME280;34101;53.430;-2.224;2024-01-30T12:47:31;102473.12;;;11.27;60.13